Time;durP1;ratioP1;P1;durP2;ratioP2;P2;SDS_P1;SDS_P2;PMS_P1;PMS_P2;Temp;Humidity;BMP_temperature;BMP_pressure;BME280_temperature;BME280_humidity;BME280_pressure;Samples;Min_cycle;Max_cycle;Signal;HPM_P1;HPM_P2
2021/01/26 00:00:32;;;;;;;;;;;1.50;94.70;;;;;;5112357;28;19924;-61
2021/01/26 00:02:59;;;;;;;;;;;1.50;99.90;;;;;;5112581;28;20380;-63
2021/01/26 00:05:25;;;;;;;;;;;1.50;99.90;;;;;;5112895;28;20288;-63
2021/01/26 00:07:51;;;;;;;;;;;1.60;99.90;;;;;;5112724;28;19924;-63
2021/01/26 00:10:17;;;;;;;;;;;1.50;99.90;;;;;;5112400;28;19924;-62
2021/01/26 00:12:43;;;;;;;;;;;1.60;99.90;;;;;;5112962;28;20426;-63
2021/01/26 00:15:09;;;;;;;;;;;1.60;99.90;;;;;;5112833;28;19936;-62
2021/01/26 00:17:35;;;;;;;;;;;1.60;99.90;;;;;;5112805;28;19924;-62
2021/01/26 00:20:03;;;;;;;;;;;1.60;99.90;;;;;;5112335;28;20273;-61
2021/01/26 00:22:29;;;;;;;;;;;1.60;99.90;;;;;;5112622;28;19934;-59
2021/01/26 00:24:55;;;;;;;;;;;1.60;99.90;;;;;;5112550;28;20385;-59
2021/01/26 00:27:21;;;;;;;;;;;1.60;1.00;;;;;;5112313;28;20043;-61
2021/01/26 00:29:47;;;;;;;;;;;1.70;1.00;;;;;;5112169;28;20420;-58
2021/01/26 00:32:13;;;;;;;;;;;1.70;1.00;;;;;;5112737;28;19931;-59
2021/01/26 00:34:39;;;;;;;;;;;1.70;1.00;;;;;;5112585;28;19928;-63
2021/01/26 00:37:06;;;;;;;;;;;1.60;1.00;;;;;;5112441;28;20300;-63
2021/01/26 00:39:32;;;;;;;;;;;1.50;1.00;;;;;;5112098;28;19930;-63
2021/01/26 00:41:58;;;;;;;;;;;1.50;99.90;;;;;;5112371;28;19923;-63
2021/01/26 00:44:24;;;;;;;;;;;1.40;1.00;;;;;;5112513;28;19976;-63
2021/01/26 00:46:50;;;;;;;;;;;1.40;1.00;;;;;;5112453;28;20376;-63
2021/01/26 00:49:16;;;;;;;;;;;1.40;1.00;;;;;;5112159;28;19924;-62
2021/01/26 00:51:42;;;;;;;;;;;1.40;1.00;;;;;;5112293;28;19924;-63
2021/01/26 00:54:09;;;;;;;;;;;1.40;1.00;;;;;;5112313;28;20345;-63
2021/01/26 00:56:35;;;;;;;;;;;1.40;1.00;;;;;;5112135;28;19931;-62
2021/01/26 00:59:01;;;;;;;;;;;1.40;1.00;;;;;;5112334;28;19924;-62
2021/01/26 01:01:27;;;;;;;;;;;1.40;12.50;;;;;;5112185;28;19930;-62
2021/01/26 01:03:53;;;;;;;;;;;1.40;8.70;;;;;;5112550;28;19924;-63
2021/01/26 01:06:19;;;;;;;;;;;1.40;59.00;;;;;;5112236;28;20021;-62
2021/01/26 01:08:45;;;;;;;;;;;1.40;99.90;;;;;;5112936;28;19974;-60
2021/01/26 01:11:12;;;;;;;;;;;1.50;99.90;;;;;;5112689;28;20353;-61
2021/01/26 01:13:38;;;;;;;;;;;1.40;99.90;;;;;;5115773;28;19977;-63
2021/01/26 01:16:04;;;;;;;;;;;1.40;99.90;;;;;;5117338;28;19924;-60
2021/01/26 01:18:30;;;;;;;;;;;1.30;98.50;;;;;;5115911;28;19924;-59
2021/01/26 01:20:56;;;;;;;;;;;1.30;99.90;;;;;;5115459;28;19935;-61
2021/01/26 01:23:22;;;;;;;;;;;1.30;99.90;;;;;;5115162;28;20026;-61
2021/01/26 01:25:48;;;;;;;;;;;1.30;99.90;;;;;;5115519;28;19928;-59
2021/01/26 01:28:15;;;;;;;;;;;1.30;99.90;;;;;;5115936;28;19924;-61
2021/01/26 01:30:41;;;;;;;;;;;1.30;99.90;;;;;;5115262;28;20162;-61
2021/01/26 01:33:07;;;;;;;;;;;1.30;99.90;;;;;;5115670;28;19924;-60
2021/01/26 01:35:33;;;;;;;;;;;1.30;99.90;;;;;;5115461;28;19924;-60
2021/01/26 01:37:59;;;;;;;;;;;1.40;99.90;;;;;;5115584;28;20324;-61
2021/01/26 01:40:26;;;;;;;;;;;1.40;99.90;;;;;;5115253;28;19924;-60
2021/01/26 01:42:52;;;;;;;;;;;1.40;1.00;;;;;;5115592;28;19923;-61
2021/01/26 01:45:20;;;;;;;;;;;1.40;1.00;;;;;;5115378;28;19938;-61
2021/01/26 01:47:49;;;;;;;;;;;1.50;1.00;;;;;;5115372;27;19924;-61
2021/01/26 01:50:17;;;;;;;;;;;1.50;1.00;;;;;;5115405;28;19923;-61
2021/01/26 01:52:44;;;;;;;;;;;1.50;1.00;;;;;;5115480;28;19924;-61
2021/01/26 01:55:12;;;;;;;;;;;1.50;1.00;;;;;;5115357;28;19928;-61
2021/01/26 01:57:40;;;;;;;;;;;1.60;1.00;;;;;;5115333;28;19924;-61
2021/01/26 02:00:08;;;;;;;;;;;1.60;1.00;;;;;;5115190;28;20295;-61
2021/01/26 02:02:37;;;;;;;;;;;1.60;1.00;;;;;;5115576;28;19950;-60
2021/01/26 02:05:04;;;;;;;;;;;1.50;1.00;;;;;;5114914;28;19930;-60
2021/01/26 02:07:31;;;;;;;;;;;1.50;1.00;;;;;;5115424;28;19949;-60
2021/01/26 02:09:57;;;;;;;;;;;1.60;1.00;;;;;;5115007;28;19931;-61
2021/01/26 02:12:24;;;;;;;;;;;1.50;1.00;;;;;;5115203;28;19923;-61
2021/01/26 02:14:51;;;;;;;;;;;1.60;1.00;;;;;;5114746;28;20382;-61
2021/01/26 02:17:23;;;;;;;;;;;1.60;1.00;;;;;;5114954;28;20018;-61
2021/01/26 02:20:22;;;;;;;;;;;1.60;1.00;;;;;;5114762;28;19931;-61
2021/01/26 02:23:18;;;;;;;;;;;1.60;1.00;;;;;;5115264;28;19938;-61
2021/01/26 02:26:14;;;;;;;;;;;1.60;1.00;;;;;;5051917;28;19924;-61
2021/01/26 02:28:52;;;;;;;;;;;1.60;1.00;;;;;;5112838;28;20265;-59
2021/01/26 02:31:26;;;;;;;;;;;1.70;1.00;;;;;;5114645;28;19931;-59
2021/01/26 02:34:04;;;;;;;;;;;1.70;1.00;;;;;;5114675;27;19930;-59
2021/01/26 02:36:41;;;;;;;;;;;1.70;1.00;;;;;;5114932;28;20021;-61
2021/01/26 02:39:31;;;;;;;;;;;1.70;1.00;;;;;;5114726;28;19989;-61
2021/01/26 02:42:02;;;;;;;;;;;1.80;1.00;;;;;;5114641;28;20308;-61
2021/01/26 02:44:31;;;;;;;;;;;1.80;1.00;;;;;;5115025;28;19931;-60
2021/01/26 02:47:03;;;;;;;;;;;1.80;1.00;;;;;;5114291;28;20299;-61
2021/01/26 02:49:38;;;;;;;;;;;1.80;1.00;;;;;;5114260;28;20399;-61
2021/01/26 02:52:07;;;;;;;;;;;1.80;1.00;;;;;;5114539;28;19928;-61
2021/01/26 02:54:39;;;;;;;;;;;1.80;1.00;;;;;;5114327;28;19924;-59
2021/01/26 02:57:08;;;;;;;;;;;1.80;1.00;;;;;;5114587;28;20341;-61
2021/01/26 02:59:37;;;;;;;;;;;1.80;1.00;;;;;;5114098;28;19924;-61
2021/01/26 03:02:05;;;;;;;;;;;1.80;1.00;;;;;;5114097;28;19924;-60
2021/01/26 03:04:34;;;;;;;;;;;1.80;1.00;;;;;;5113662;28;20275;-61
2021/01/26 03:07:02;;;;;;;;;;;1.80;1.00;;;;;;5114206;28;20384;-61
2021/01/26 03:09:31;;;;;;;;;;;1.80;1.00;;;;;;5114033;28;19923;-59
2021/01/26 03:12:00;;;;;;;;;;;1.80;1.00;;;;;;5114125;28;20015;-61
2021/01/26 03:14:29;;;;;;;;;;;1.90;3.30;;;;;;5114086;28;19935;-61
2021/01/26 03:16:59;;;;;;;;;;;1.90;9.10;;;;;;5114286;28;19924;-61
2021/01/26 03:19:27;;;;;;;;;;;1.90;5.10;;;;;;5113975;28;19930;-58
2021/01/26 03:21:56;;;;;;;;;;;1.90;1.00;;;;;;5113871;28;19924;-60
2021/01/26 03:24:23;;;;;;;;;;;2.00;1.00;;;;;;5113721;28;19928;-62
2021/01/26 03:26:50;;;;;;;;;;;2.00;1.00;;;;;;5114100;28;19928;-61
2021/01/26 03:29:20;;;;;;;;;;;2.00;1.00;;;;;;5116501;27;19924;-62
2021/01/26 03:31:48;;;;;;;;;;;2.00;1.00;;;;;;5116939;28;20303;-62
2021/01/26 03:34:14;;;;;;;;;;;2.00;1.00;;;;;;5115483;27;19924;-62
2021/01/26 03:36:41;;;;;;;;;;;2.00;1.00;;;;;;5116584;28;19931;-59
2021/01/26 03:39:07;;;;;;;;;;;2.10;1.00;;;;;;5113433;28;19927;-61
2021/01/26 03:41:33;;;;;;;;;;;2.10;1.00;;;;;;5113179;28;19924;-63
2021/01/26 03:44:00;;;;;;;;;;;2.10;1.00;;;;;;5113708;28;19934;-62
2021/01/26 03:46:41;;;;;;;;;;;2.10;1.00;;;;;;5113424;28;19966;-62
2021/01/26 03:49:13;;;;;;;;;;;2.10;1.00;;;;;;5113512;28;19969;-63
2021/01/26 03:51:44;;;;;;;;;;;2.20;99.90;;;;;;5112869;27;19950;-62
2021/01/26 03:54:23;;;;;;;;;;;2.20;99.90;;;;;;5113378;28;19924;-62
2021/01/26 03:57:01;;;;;;;;;;;2.20;99.90;;;;;;5113281;28;19928;-62
2021/01/26 03:59:32;;;;;;;;;;;2.20;99.90;;;;;;5112837;28;20380;-62
2021/01/26 04:02:06;;;;;;;;;;;2.20;99.90;;;;;;5113207;28;19946;-61
2021/01/26 04:04:34;;;;;;;;;;;2.20;99.90;;;;;;5112696;28;19931;-62
2021/01/26 04:07:02;;;;;;;;;;;2.20;99.90;;;;;;5112842;28;19924;-64
2021/01/26 04:09:33;;;;;;;;;;;2.20;99.80;;;;;;5112495;28;19924;-64
2021/01/26 04:12:02;;;;;;;;;;;2.10;98.10;;;;;;5112833;28;19928;-63
2021/01/26 04:14:30;;;;;;;;;;;2.10;99.90;;;;;;5112650;28;19923;-63
2021/01/26 04:16:58;;;;;;;;;;;2.10;99.90;;;;;;5112621;28;20404;-62
2021/01/26 04:19:27;;;;;;;;;;;2.10;99.90;;;;;;5112659;28;20277;-62
2021/01/26 04:21:53;;;;;;;;;;;2.10;99.90;;;;;;5114391;28;19932;-63
2021/01/26 04:24:19;;;;;;;;;;;2.10;99.90;;;;;;5112733;28;19973;-63
2021/01/26 04:26:47;;;;;;;;;;;2.00;99.90;;;;;;5112378;28;19930;-62
2021/01/26 04:29:13;;;;;;;;;;;2.00;99.90;;;;;;5112304;28;20300;-64
2021/01/26 04:31:39;;;;;;;;;;;2.00;99.90;;;;;;5112480;28;19931;-63
2021/01/26 04:34:05;;;;;;;;;;;2.00;99.90;;;;;;5112663;28;20318;-62
2021/01/26 04:36:32;;;;;;;;;;;2.00;99.90;;;;;;5112508;28;19924;-63
2021/01/26 04:38:58;;;;;;;;;;;2.00;99.90;;;;;;5112486;28;19924;-62
2021/01/26 04:41:32;;;;;;;;;;;2.00;99.90;;;;;;5100099;28;19924;-62
2021/01/26 04:44:05;;;;;;;;;;;2.10;99.90;;;;;;5092318;28;20672;-62
2021/01/26 04:46:34;;;;;;;;;;;2.10;99.90;;;;;;5093472;28;19931;-63
2021/01/26 04:49:01;;;;;;;;;;;2.10;99.90;;;;;;5095869;28;19924;-62
2021/01/26 04:51:33;;;;;;;;;;;2.10;99.90;;;;;;5095633;28;19924;-63
2021/01/26 04:54:10;;;;;;;;;;;2.10;99.90;;;;;;5095741;28;19928;-63
2021/01/26 04:56:39;;;;;;;;;;;2.10;99.90;;;;;;5096078;28;20342;-63
2021/01/26 04:59:20;;;;;;;;;;;2.10;99.90;;;;;;5095796;28;19946;-62
2021/01/26 05:01:55;;;;;;;;;;;2.10;99.90;;;;;;5095871;28;19924;-62
2021/01/26 05:04:22;;;;;;;;;;;2.10;99.90;;;;;;5095638;28;19924;-62
2021/01/26 05:06:50;;;;;;;;;;;2.10;99.90;;;;;;5095361;28;19987;-62
2021/01/26 05:09:17;;;;;;;;;;;2.10;99.90;;;;;;5095405;28;19924;-62
2021/01/26 05:11:44;;;;;;;;;;;2.20;99.90;;;;;;5095576;28;19932;-62
2021/01/26 05:14:13;;;;;;;;;;;2.20;99.90;;;;;;5095604;28;19924;-62
2021/01/26 05:16:43;;;;;;;;;;;2.20;99.90;;;;;;5095333;28;19951;-63
2021/01/26 05:19:12;;;;;;;;;;;2.20;99.90;;;;;;5095407;28;19951;-62
2021/01/26 05:21:43;;;;;;;;;;;2.20;99.90;;;;;;5092793;28;19924;-62
2021/01/26 05:24:14;;;;;;;;;;;2.20;99.90;;;;;;5109087;28;19927;-63
2021/01/26 05:26:41;;;;;;;;;;;2.20;99.90;;;;;;5115700;28;20329;-63
2021/01/26 05:29:08;;;;;;;;;;;2.20;99.90;;;;;;5115442;28;20316;-62
2021/01/26 05:31:34;;;;;;;;;;;2.20;99.90;;;;;;5114922;28;20303;-63
2021/01/26 05:34:03;;;;;;;;;;;2.20;99.90;;;;;;5115511;28;19924;-63
2021/01/26 05:36:29;;;;;;;;;;;2.20;99.90;;;;;;5115426;27;20018;-62
2021/01/26 05:38:55;;;;;;;;;;;2.20;99.90;;;;;;5115297;28;19924;-61
2021/01/26 05:41:21;;;;;;;;;;;2.20;99.90;;;;;;5115012;28;19931;-61
2021/01/26 05:43:48;;;;;;;;;;;2.20;99.90;;;;;;5115325;28;19923;-62
2021/01/26 05:46:30;;;;;;;;;;;2.20;99.90;;;;;;5114682;27;19976;-63
2021/01/26 05:48:56;;;;;;;;;;;2.20;99.90;;;;;;5115822;28;19924;-63
2021/01/26 05:51:25;;;;;;;;;;;2.20;99.90;;;;;;5114617;28;19931;-63
2021/01/26 05:53:52;;;;;;;;;;;2.30;99.90;;;;;;5115099;28;20384;-63
2021/01/26 05:56:18;;;;;;;;;;;2.20;99.90;;;;;;5114834;28;19924;-62
2021/01/26 05:58:46;;;;;;;;;;;2.20;99.90;;;;;;5114376;28;19949;-62
2021/01/26 06:01:23;;;;;;;;;;;2.30;99.90;;;;;;5114665;28;20001;-63
2021/01/26 06:04:03;;;;;;;;;;;2.30;99.90;;;;;;5114734;28;19988;-63
2021/01/26 06:06:29;;;;;;;;;;;2.30;99.90;;;;;;5115026;27;19928;-63
2021/01/26 06:08:56;;;;;;;;;;;2.30;59.90;;;;;;5114782;28;20388;-62
2021/01/26 06:11:24;;;;;;;;;;;2.30;59.60;;;;;;5114447;28;20277;-61
2021/01/26 06:13:50;;;;;;;;;;;2.30;59.80;;;;;;5114581;28;19968;-62
2021/01/26 06:16:20;;;;;;;;;;;2.30;99.90;;;;;;5114818;28;19931;-61
2021/01/26 06:18:56;;;;;;;;;;;2.30;67.20;;;;;;5114773;28;20537;-61
2021/01/26 06:21:22;;;;;;;;;;;2.30;91.60;;;;;;5114382;28;19931;-62
2021/01/26 06:23:48;;;;;;;;;;;2.20;99.90;;;;;;5114212;28;19927;-60
2021/01/26 06:26:14;;;;;;;;;;;2.20;99.90;;;;;;5114588;28;19924;-61
2021/01/26 06:28:52;;;;;;;;;;;2.20;99.90;;;;;;5114749;28;19930;-58
2021/01/26 06:31:28;;;;;;;;;;;2.20;99.90;;;;;;5114120;28;19924;-63
2021/01/26 06:34:09;;;;;;;;;;;2.20;99.90;;;;;;5114342;28;19931;-62
2021/01/26 06:36:41;;;;;;;;;;;2.20;99.90;;;;;;5111689;28;19931;-63
2021/01/26 06:39:12;;;;;;;;;;;2.20;99.90;;;;;;5114598;28;19931;-62
2021/01/26 06:41:52;;;;;;;;;;;2.20;99.90;;;;;;5113896;28;19924;-63
2021/01/26 06:44:37;;;;;;;;;;;2.20;99.90;;;;;;5114157;27;19923;-63
2021/01/26 06:47:15;;;;;;;;;;;2.20;99.90;;;;;;5114169;28;19935;-62
2021/01/26 06:49:47;;;;;;;;;;;2.20;99.90;;;;;;5114012;27;19935;-63
2021/01/26 06:52:20;;;;;;;;;;;2.20;1.00;;;;;;5114109;28;19930;-62
2021/01/26 06:55:02;;;;;;;;;;;2.30;1.00;;;;;;5114292;28;19930;-63
2021/01/26 06:57:35;;;;;;;;;;;2.30;1.00;;;;;;5114020;28;19928;-63
2021/01/26 07:00:18;;;;;;;;;;;2.30;1.00;;;;;;5113588;28;19951;-63
2021/01/26 07:02:56;;;;;;;;;;;2.30;1.00;;;;;;5113985;28;19923;-63
2021/01/26 07:05:27;;;;;;;;;;;2.30;1.00;;;;;;5113948;28;19924;-63
2021/01/26 07:08:11;;;;;;;;;;;2.30;1.00;;;;;;5113942;28;19925;-62
2021/01/26 07:10:45;;;;;;;;;;;2.30;1.00;;;;;;5113088;28;19924;-62
2021/01/26 07:13:18;;;;;;;;;;;2.30;1.00;;;;;;5113790;28;19969;-62
2021/01/26 07:16:02;;;;;;;;;;;2.40;1.00;;;;;;5114702;28;19923;-62
2021/01/26 07:18:38;;;;;;;;;;;2.40;1.00;;;;;;5113769;28;19950;-62
2021/01/26 07:21:12;;;;;;;;;;;2.40;1.00;;;;;;5113133;28;19928;-63
2021/01/26 07:23:47;;;;;;;;;;;2.40;1.00;;;;;;5113518;28;20303;-62
2021/01/26 07:26:27;;;;;;;;;;;2.40;1.00;;;;;;5113064;28;19923;-63
2021/01/26 07:29:08;;;;;;;;;;;2.40;1.00;;;;;;5113610;28;19924;-63
2021/01/26 07:31:37;;;;;;;;;;;2.40;1.00;;;;;;5113029;28;19936;-62
2021/01/26 07:34:06;;;;;;;;;;;2.50;99.90;;;;;;5113347;28;19924;-63
2021/01/26 07:36:34;;;;;;;;;;;2.50;99.90;;;;;;5112950;27;20269;-61
2021/01/26 07:39:02;;;;;;;;;;;2.50;99.90;;;;;;5113347;28;19981;-61
2021/01/26 07:41:31;;;;;;;;;;;2.50;99.90;;;;;;5113011;28;19924;-62
2021/01/26 07:44:00;;;;;;;;;;;2.40;99.90;;;;;;5113590;28;19968;-59
2021/01/26 07:46:29;;;;;;;;;;;2.50;99.90;;;;;;5112970;27;19928;-62
2021/01/26 07:48:58;;;;;;;;;;;2.40;99.90;;;;;;5113132;28;19931;-62
2021/01/26 07:51:28;;;;;;;;;;;2.40;99.90;;;;;;5112647;28;19939;-61
2021/01/26 07:53:57;;;;;;;;;;;2.40;99.90;;;;;;5113162;28;19948;-62
2021/01/26 07:56:25;;;;;;;;;;;2.40;99.90;;;;;;5113130;28;20397;-62
2021/01/26 07:58:52;;;;;;;;;;;2.40;99.90;;;;;;5113125;28;19924;-61
2021/01/26 08:01:25;;;;;;;;;;;2.40;99.90;;;;;;5112798;28;19952;-61
2021/01/26 08:03:51;;;;;;;;;;;2.40;99.90;;;;;;5112729;28;20014;-62
2021/01/26 08:06:50;;;;;;;;;;;2.40;99.90;;;;;;5113364;28;19923;-62
2021/01/26 08:09:19;;;;;;;;;;;2.40;99.90;;;;;;5049750;28;19925;-63
2021/01/26 08:11:50;;;;;;;;;;;2.40;99.90;;;;;;5049352;28;19932;-63
2021/01/26 08:14:16;;;;;;;;;;;2.40;99.90;;;;;;5079754;28;19927;-63
2021/01/26 08:16:43;;;;;;;;;;;2.40;99.90;;;;;;5112904;28;19977;-63
2021/01/26 08:19:18;;;;;;;;;;;2.40;99.90;;;;;;5112785;28;19928;-62
2021/01/26 08:21:45;;;;;;;;;;;2.40;1.00;;;;;;5116104;28;19969;-63
2021/01/26 08:24:13;;;;;;;;;;;2.50;1.00;;;;;;5116844;28;19924;-62
2021/01/26 08:26:41;;;;;;;;;;;2.40;1.00;;;;;;5117094;28;19982;-63
2021/01/26 08:29:10;;;;;;;;;;;2.40;1.00;;;;;;5117720;28;19924;-62
2021/01/26 08:31:38;;;;;;;;;;;2.40;1.00;;;;;;5117273;28;19924;-63
2021/01/26 08:34:23;;;;;;;;;;;2.40;1.00;;;;;;5117098;28;19927;-63
2021/01/26 08:37:09;;;;;;;;;;;2.40;1.00;;;;;;5117203;28;19981;-64
2021/01/26 08:39:40;;;;;;;;;;;2.40;1.00;;;;;;5116788;28;19924;-61
2021/01/26 08:42:07;;;;;;;;;;;2.50;1.00;;;;;;5116566;27;20015;-61
2021/01/26 08:44:51;;;;;;;;;;;2.50;1.00;;;;;;5116702;28;20435;-63
2021/01/26 08:47:48;;;;;;;;;;;2.50;1.00;;;;;;5116168;28;19994;-63
2021/01/26 08:50:19;;;;;;;;;;;2.60;1.00;;;;;;5116315;28;20044;-62
2021/01/26 08:52:46;;;;;;;;;;;2.60;1.00;;;;;;5116434;28;19927;-62
2021/01/26 08:55:27;;;;;;;;;;;2.60;1.00;;;;;;5116575;28;19924;-62
2021/01/26 08:57:53;;;;;;;;;;;2.70;1.00;;;;;;5116011;28;19924;-63
2021/01/26 09:00:25;;;;;;;;;;;2.70;1.00;;;;;;5116079;28;19927;-63
2021/01/26 09:02:52;;;;;;;;;;;2.70;1.00;;;;;;5116115;28;19924;-63
2021/01/26 09:05:46;;;;;;;;;;;2.70;1.00;;;;;;5116340;28;19952;-63
2021/01/26 09:08:32;;;;;;;;;;;2.70;1.00;;;;;;5115757;28;19947;-63
2021/01/26 09:11:00;;;;;;;;;;;2.70;1.00;;;;;;5115530;28;19927;-62
2021/01/26 09:13:28;;;;;;;;;;;2.70;1.00;;;;;;5115830;27;19923;-62
2021/01/26 09:15:57;;;;;;;;;;;2.70;1.00;;;;;;5116102;28;19931;-61
2021/01/26 09:18:24;;;;;;;;;;;2.70;1.00;;;;;;5115919;28;19924;-62
2021/01/26 09:20:52;;;;;;;;;;;2.70;1.00;;;;;;5115329;28;19924;-62
2021/01/26 09:23:21;;;;;;;;;;;2.70;99.90;;;;;;5115832;28;19924;-62
2021/01/26 09:25:47;;;;;;;;;;;2.70;99.90;;;;;;5115836;28;19924;-62
2021/01/26 09:28:15;;;;;;;;;;;2.60;99.90;;;;;;5115959;28;19923;-62
2021/01/26 09:30:42;;;;;;;;;;;2.70;99.90;;;;;;5115156;28;19924;-62
2021/01/26 09:33:17;;;;;;;;;;;2.70;99.90;;;;;;5114743;28;19927;-62
2021/01/26 09:35:44;;;;;;;;;;;2.70;99.90;;;;;;5115644;28;19999;-62
2021/01/26 09:38:12;;;;;;;;;;;2.70;99.90;;;;;;5115745;28;19930;-62
2021/01/26 09:40:40;;;;;;;;;;;2.70;99.90;;;;;;5115052;28;19924;-62
2021/01/26 09:43:14;;;;;;;;;;;2.70;1.00;;;;;;5115546;28;20299;-62
2021/01/26 09:45:42;;;;;;;;;;;2.80;1.00;;;;;;5115026;28;19924;-63
2021/01/26 09:48:08;;;;;;;;;;;2.80;1.00;;;;;;5115234;28;19927;-62
2021/01/26 09:50:34;;;;;;;;;;;2.80;1.00;;;;;;5115854;28;20554;-62
2021/01/26 09:53:03;;;;;;;;;;;2.80;1.00;;;;;;5119301;28;19931;-62
2021/01/26 09:55:29;;;;;;;;;;;2.80;1.00;;;;;;5118339;28;19939;-62
2021/01/26 09:57:56;;;;;;;;;;;2.80;1.00;;;;;;5117614;28;19928;-62
2021/01/26 10:00:23;;;;;;;;;;;2.90;1.00;;;;;;5116062;28;20384;-63
2021/01/26 10:02:53;;;;;;;;;;;2.90;1.00;;;;;;5115306;28;19939;-61
2021/01/26 10:05:21;;;;;;;;;;;3.00;1.00;;;;;;5115090;28;20260;-62
2021/01/26 10:08:02;;;;;;;;;;;3.00;1.00;;;;;;5114696;28;19970;-61
2021/01/26 10:10:29;;;;;;;;;;;3.00;1.00;;;;;;5114497;28;19924;-62
2021/01/26 10:12:55;;;;;;;;;;;3.00;1.00;;;;;;5114630;28;19976;-63
2021/01/26 10:15:33;;;;;;;;;;;3.00;1.00;;;;;;5114719;28;20326;-62
2021/01/26 10:18:05;;;;;;;;;;;3.10;1.00;;;;;;5114669;28;19928;-63
2021/01/26 10:20:35;;;;;;;;;;;3.10;1.00;;;;;;5114409;27;19946;-63
2021/01/26 10:23:02;;;;;;;;;;;3.20;1.00;;;;;;5114589;28;19969;-63
2021/01/26 10:25:28;;;;;;;;;;;3.20;1.00;;;;;;5114517;27;19924;-62
2021/01/26 10:28:04;;;;;;;;;;;3.20;1.00;;;;;;5114613;27;19939;-62
2021/01/26 10:30:30;;;;;;;;;;;3.20;99.90;;;;;;5114249;27;20346;-63
2021/01/26 10:32:56;;;;;;;;;;;3.10;99.90;;;;;;5114729;27;20277;-63
2021/01/26 10:35:24;;;;;;;;;;;3.00;99.90;;;;;;5114434;27;19949;-63
2021/01/26 10:37:51;;;;;;;;;;;3.10;99.90;;;;;;5114131;28;19931;-62
2021/01/26 10:40:31;;;;;;;;;;;3.10;99.90;;;;;;5114013;28;19930;-62
2021/01/26 10:43:06;;;;;;;;;;;3.10;99.90;;;;;;5113994;28;20387;-62
2021/01/26 10:45:34;;;;;;;;;;;3.20;99.90;;;;;;5113409;28;19930;-62
2021/01/26 10:48:06;;;;;;;;;;;3.20;99.90;;;;;;5114234;28;19928;-63
2021/01/26 10:50:33;;;;;;;;;;;3.10;99.90;;;;;;5113754;28;19924;-63
2021/01/26 10:52:59;;;;;;;;;;;3.20;99.90;;;;;;5114232;28;19934;-62
2021/01/26 10:55:25;;;;;;;;;;;3.20;99.90;;;;;;5114067;28;20368;-62
2021/01/26 10:57:51;;;;;;;;;;;3.10;42.10;;;;;;5114201;28;19924;-62
2021/01/26 11:00:19;;;;;;;;;;;3.10;1.00;;;;;;5113887;28;19928;-63
2021/01/26 11:02:45;;;;;;;;;;;3.00;1.00;;;;;;5113541;28;19932;-63
2021/01/26 11:05:12;;;;;;;;;;;3.00;1.00;;;;;;5113667;28;20552;-63
2021/01/26 11:07:39;;;;;;;;;;;2.90;1.00;;;;;;5113847;28;19985;-63
2021/01/26 11:10:07;;;;;;;;;;;2.90;2.40;;;;;;5113816;28;19981;-63
2021/01/26 11:12:33;;;;;;;;;;;2.90;60.40;;;;;;5114321;28;19969;-63
2021/01/26 11:14:59;;;;;;;;;;;3.00;95.20;;;;;;5114947;28;19928;-63
2021/01/26 11:17:25;;;;;;;;;;;2.80;1.00;;;;;;5114095;28;19927;-63
2021/01/26 11:19:52;;;;;;;;;;;2.60;1.00;;;;;;5113974;28;19934;-62
2021/01/26 11:22:18;;;;;;;;;;;2.50;1.00;;;;;;5113574;28;19923;-62
2021/01/26 11:24:45;;;;;;;;;;;2.40;1.00;;;;;;5114250;28;19993;-63
2021/01/26 11:27:11;;;;;;;;;;;2.30;1.00;;;;;;5114284;28;19931;-63
2021/01/26 11:29:38;;;;;;;;;;;2.40;1.00;;;;;;5113816;28;19931;-63
2021/01/26 11:32:04;;;;;;;;;;;2.40;1.00;;;;;;5113220;28;19923;-61
2021/01/26 11:34:30;;;;;;;;;;;2.40;1.00;;;;;;5113686;28;19923;-62
2021/01/26 11:36:56;;;;;;;;;;;2.40;1.00;;;;;;5113909;28;19927;-60
2021/01/26 11:39:22;;;;;;;;;;;2.30;1.00;;;;;;5113573;28;19927;-61
2021/01/26 11:41:49;;;;;;;;;;;2.30;1.00;;;;;;5113504;28;19928;-61
2021/01/26 11:44:15;;;;;;;;;;;2.30;1.00;;;;;;5113272;28;19992;-61
2021/01/26 11:46:41;;;;;;;;;;;2.30;1.00;;;;;;5113160;28;19927;-60
2021/01/26 11:49:07;;;;;;;;;;;2.20;99.90;;;;;;5113653;28;20292;-60
2021/01/26 11:51:33;;;;;;;;;;;2.30;1.00;;;;;;5113112;28;19923;-61
2021/01/26 11:53:59;;;;;;;;;;;2.30;99.90;;;;;;5113446;28;19932;-61
2021/01/26 11:56:26;;;;;;;;;;;2.30;99.90;;;;;;5113161;28;19946;-61
2021/01/26 11:58:53;;;;;;;;;;;2.30;99.90;;;;;;5113445;28;20015;-61
2021/01/26 12:01:19;;;;;;;;;;;2.30;99.90;;;;;;5113263;28;19927;-62
2021/01/26 12:03:45;;;;;;;;;;;2.30;99.90;;;;;;5113544;28;19977;-62
2021/01/26 12:06:13;;;;;;;;;;;2.40;99.90;;;;;;5112287;28;21292;-61
2021/01/26 12:08:39;;;;;;;;;;;2.40;99.90;;;;;;5113042;28;19977;-62
2021/01/26 12:11:05;;;;;;;;;;;2.50;99.90;;;;;;5112355;28;19927;-62
2021/01/26 12:13:31;;;;;;;;;;;2.50;1.00;;;;;;5113109;28;19923;-60
2021/01/26 12:15:58;;;;;;;;;;;2.70;1.00;;;;;;5112853;28;19977;-62
2021/01/26 12:18:24;;;;;;;;;;;2.70;1.00;;;;;;5113069;28;19928;-61
2021/01/26 12:20:51;;;;;;;;;;;2.70;1.00;;;;;;5112989;28;19964;-59
2021/01/26 12:23:17;;;;;;;;;;;2.80;1.00;;;;;;5113107;28;20462;-60
2021/01/26 12:25:43;;;;;;;;;;;2.80;1.00;;;;;;5113003;28;19924;-62
2021/01/26 12:28:09;;;;;;;;;;;2.90;1.00;;;;;;5112850;28;19924;-62
2021/01/26 12:30:35;;;;;;;;;;;2.90;1.00;;;;;;5112581;28;20429;-63
2021/01/26 12:33:02;;;;;;;;;;;2.90;1.00;;;;;;5112542;28;19931;-62
2021/01/26 12:35:29;;;;;;;;;;;3.00;1.00;;;;;;5112948;28;20300;-61
2021/01/26 12:37:55;;;;;;;;;;;3.10;1.00;;;;;;5113123;28;19950;-60
2021/01/26 12:40:21;;;;;;;;;;;3.30;81.30;;;;;;5112494;28;19930;-62
2021/01/26 12:42:48;;;;;;;;;;;3.40;99.90;;;;;;5112472;28;20445;-63
2021/01/26 12:45:15;;;;;;;;;;;3.60;99.90;;;;;;5112762;28;19924;-62
2021/01/26 12:47:41;;;;;;;;;;;3.80;99.90;;;;;;5112879;28;19924;-61
2021/01/26 12:50:09;;;;;;;;;;;3.90;99.90;;;;;;5114165;28;20308;-60
2021/01/26 12:52:36;;;;;;;;;;;4.10;99.90;;;;;;5113083;28;19928;-61
2021/01/26 12:55:02;;;;;;;;;;;4.30;24.70;;;;;;5112450;28;20319;-62
2021/01/26 12:57:28;;;;;;;;;;;4.40;1.00;;;;;;5112411;28;20337;-62
2021/01/26 12:59:54;;;;;;;;;;;4.60;1.00;;;;;;5112269;28;19976;-62
2021/01/26 13:02:20;;;;;;;;;;;4.70;99.90;;;;;;5112630;28;19927;-62
2021/01/26 13:04:46;;;;;;;;;;;4.90;34.40;;;;;;5112222;28;19924;-62
2021/01/26 13:07:13;;;;;;;;;;;4.90;99.90;;;;;;5113328;28;19951;-63
2021/01/26 13:09:39;;;;;;;;;;;4.90;1.00;;;;;;5116195;28;20396;-63
2021/01/26 13:12:06;;;;;;;;;;;4.70;99.90;;;;;;5115687;28;19923;-63
2021/01/26 13:14:32;;;;;;;;;;;4.50;13.00;;;;;;5116564;28;19923;-63
2021/01/26 13:16:58;;;;;;;;;;;4.50;99.90;;;;;;5116207;28;19927;-63
2021/01/26 13:19:24;;;;;;;;;;;4.50;99.90;;;;;;5116126;28;20391;-63
2021/01/26 13:21:51;;;;;;;;;;;4.40;99.90;;;;;;5115582;27;19981;-64
2021/01/26 13:24:18;;;;;;;;;;;4.40;99.90;;;;;;5116184;28;20017;-63
2021/01/26 13:26:45;;;;;;;;;;;4.50;99.90;;;;;;5115536;28;19924;-62
2021/01/26 13:29:11;;;;;;;;;;;4.50;99.90;;;;;;5116106;28;19935;-63
2021/01/26 13:31:37;;;;;;;;;;;4.60;99.90;;;;;;5115455;28;20300;-63
2021/01/26 13:34:03;;;;;;;;;;;4.50;99.90;;;;;;5116418;28;19935;-61
2021/01/26 13:36:29;;;;;;;;;;;4.50;99.90;;;;;;5115906;28;19924;-62
2021/01/26 13:38:55;;;;;;;;;;;4.40;37.40;;;;;;5115791;28;19924;-62
2021/01/26 13:41:21;;;;;;;;;;;4.40;99.90;;;;;;5115019;28;20336;-62
2021/01/26 13:43:47;;;;;;;;;;;4.40;99.90;;;;;;5115685;28;19932;-63
2021/01/26 13:46:14;;;;;;;;;;;4.40;62.80;;;;;;5115555;28;19924;-64
2021/01/26 13:48:40;;;;;;;;;;;4.40;1.00;;;;;;5115472;27;19928;-63
2021/01/26 13:51:06;;;;;;;;;;;4.40;1.00;;;;;;5114985;28;19924;-63
2021/01/26 13:53:32;;;;;;;;;;;4.30;1.00;;;;;;5115381;28;19924;-64
2021/01/26 13:55:58;;;;;;;;;;;4.30;1.00;;;;;;5115334;28;20394;-64
2021/01/26 13:58:25;;;;;;;;;;;4.30;1.00;;;;;;5115534;28;19930;-63
2021/01/26 14:00:51;;;;;;;;;;;4.30;1.00;;;;;;5115397;28;19928;-63
2021/01/26 14:03:17;;;;;;;;;;;4.30;1.00;;;;;;5115178;28;19924;-63
2021/01/26 14:05:43;;;;;;;;;;;4.30;99.90;;;;;;5114958;28;20400;-64
2021/01/26 14:08:10;;;;;;;;;;;4.30;1.00;;;;;;5114838;28;20341;-64
2021/01/26 14:10:36;;;;;;;;;;;4.20;1.00;;;;;;5114637;28;20315;-63
2021/01/26 14:13:02;;;;;;;;;;;4.20;99.90;;;;;;5115150;28;19931;-64
2021/01/26 14:15:29;;;;;;;;;;;4.20;99.90;;;;;;5114917;28;19924;-63
2021/01/26 14:17:56;;;;;;;;;;;4.30;99.90;;;;;;5111901;28;19934;-64
2021/01/26 14:20:22;;;;;;;;;;;4.40;99.90;;;;;;5113968;28;20334;-63
2021/01/26 14:22:50;;;;;;;;;;;4.40;99.90;;;;;;5114685;28;19931;-63
2021/01/26 14:25:16;;;;;;;;;;;4.40;99.90;;;;;;5115154;28;19928;-63
2021/01/26 14:27:43;;;;;;;;;;;4.50;99.90;;;;;;5114852;27;19924;-64
2021/01/26 14:30:11;;;;;;;;;;;4.60;99.90;;;;;;5114270;28;19928;-63
2021/01/26 14:32:38;;;;;;;;;;;4.70;89.00;;;;;;5114263;28;19923;-64
2021/01/26 14:35:04;;;;;;;;;;;4.70;1.00;;;;;;5114587;28;19928;-63
2021/01/26 14:37:30;;;;;;;;;;;4.60;1.00;;;;;;5113961;28;20335;-64
2021/01/26 14:39:56;;;;;;;;;;;4.60;1.00;;;;;;5114548;28;19931;-64
2021/01/26 14:42:22;;;;;;;;;;;4.60;1.00;;;;;;5114729;28;19923;-64
2021/01/26 14:44:48;;;;;;;;;;;4.50;99.90;;;;;;5114285;28;19923;-63
2021/01/26 14:47:15;;;;;;;;;;;4.50;99.90;;;;;;5114277;28;20439;-63